createdAt,value
2022-08-01T00:02:00.398Z,9.07
2022-08-01T00:04:28.679Z,8.80
2022-08-01T00:06:56.867Z,8.80
2022-08-01T00:09:25.096Z,9.53
2022-08-01T00:11:59.766Z,9.17
2022-08-01T00:14:32.456Z,9.47
2022-08-01T00:17:07.441Z,8.40
2022-08-01T00:19:37.606Z,9.10
2022-08-01T00:22:06.068Z,9.03
2022-08-01T00:24:34.587Z,8.40
2022-08-01T00:27:04.134Z,8.20
2022-08-01T00:30:12.078Z,9.23
2022-08-01T00:32:20.544Z,8.30
2022-08-01T00:34:48.782Z,8.77
2022-08-01T00:37:17.629Z,8.67
2022-08-01T00:39:45.794Z,8.63
2022-08-01T00:42:18.537Z,9.03
2022-08-01T00:44:46.685Z,8.63
2022-08-01T00:47:18.152Z,7.80
2022-08-01T00:49:46.427Z,8.43
2022-08-01T00:52:17.679Z,7.27
2022-08-01T00:54:46.383Z,7.50
2022-08-01T00:57:16.011Z,7.03
2022-08-01T00:59:56.154Z,6.87
2022-08-01T01:02:25.036Z,7.07
2022-08-01T01:04:53.176Z,7.10
2022-08-01T01:07:31.565Z,7.20
2022-08-01T01:10:05.816Z,7.00
2022-08-01T01:12:41.809Z,7.50
2022-08-01T01:15:17.951Z,7.00
2022-08-01T01:17:52.076Z,6.90
2022-08-01T01:20:23.662Z,7.17
2022-08-01T01:23:09.599Z,6.73
2022-08-01T01:26:08.073Z,6.70
2022-08-01T01:28:48.068Z,6.77
2022-08-01T01:31:23.731Z,6.90
2022-08-01T01:33:53.084Z,6.93
2022-08-01T01:36:24.959Z,7.03
2022-08-01T01:38:55.021Z,6.83
2022-08-01T01:41:24.410Z,7.60
2022-08-01T01:43:54.095Z,7.13
2022-08-01T01:46:27.950Z,8.00
2022-08-01T01:48:58.414Z,6.97
2022-08-01T01:51:29.544Z,7.67
2022-08-01T01:53:59.915Z,6.97
2022-08-01T01:56:29.743Z,7.30
2022-08-01T01:59:03.797Z,6.70
2022-08-01T02:01:58.748Z,6.20
2022-08-01T02:04:26.646Z,5.60
2022-08-01T02:06:55.781Z,4.90
2022-08-01T02:09:25.583Z,4.93
2022-08-01T02:12:07.544Z,4.90
2022-08-01T02:14:40.958Z,3.97
2022-08-01T02:17:13.304Z,4.70
2022-08-01T02:19:41.788Z,4.07
2022-08-01T02:22:13.875Z,4.23
2022-08-01T02:24:51.638Z,4.20
2022-08-01T02:27:28.135Z,3.87
2022-08-01T02:30:03.495Z,3.97
2022-08-01T02:32:39.077Z,3.87
2022-08-01T02:35:12.094Z,4.03
2022-08-01T02:37:41.711Z,3.87
2022-08-01T02:40:15.437Z,3.67
2022-08-01T02:42:48.681Z,3.43
2022-08-01T02:45:20.074Z,3.80
2022-08-01T02:47:52.401Z,3.77
2022-08-01T02:50:21.331Z,3.60
2022-08-01T02:52:52.997Z,3.20
2022-08-01T02:55:23.689Z,2.90
2022-08-01T02:58:00.096Z,3.30
2022-08-01T03:00:30.351Z,2.73
2022-08-01T03:03:01.864Z,2.73
2022-08-01T03:05:30.605Z,2.77
2022-08-01T03:08:02.713Z,2.90
2022-08-01T03:10:33.659Z,3.33
2022-08-01T03:13:03.619Z,2.67
2022-08-01T03:15:36.770Z,3.23
2022-08-01T03:18:09.062Z,3.80
2022-08-01T03:20:37.687Z,3.53
2022-08-01T03:23:09.865Z,3.30
2022-08-01T03:25:41.880Z,3.60
2022-08-01T03:28:11.240Z,3.70
2022-08-01T03:30:41.565Z,3.80
2022-08-01T03:33:14.500Z,4.23
2022-08-01T03:35:57.393Z,4.67
2022-08-01T03:38:29.412Z,4.53
2022-08-01T03:41:01.767Z,4.60
2022-08-01T03:43:39.466Z,4.13
2022-08-01T03:46:10.908Z,4.17
2022-08-01T03:48:45.673Z,4.10
2022-08-01T03:51:16.070Z,4.50
2022-08-01T03:53:49.915Z,4.53
2022-08-01T03:56:21.545Z,4.87
2022-08-01T03:58:52.701Z,4.23
2022-08-01T04:01:21.564Z,5.20
2022-08-01T04:03:51.604Z,4.40
2022-08-01T04:06:19.879Z,4.57
2022-08-01T04:08:56.598Z,4.80
2022-08-01T04:11:29.879Z,4.27
2022-08-01T04:13:58.546Z,4.77
2022-08-01T04:16:27.485Z,4.90
2022-08-01T04:18:57.335Z,4.80
2022-08-01T04:21:29.629Z,4.57
2022-08-01T04:24:04.437Z,4.50
2022-08-01T04:26:34.588Z,4.73
2022-08-01T04:29:05.842Z,4.90
2022-08-01T04:31:35.178Z,4.30
2022-08-01T04:34:06.936Z,4.97
2022-08-01T04:36:39.183Z,4.97
2022-08-01T04:39:08.988Z,5.37
2022-08-01T04:41:38.723Z,4.70
2022-08-01T04:44:07.806Z,5.10
2022-08-01T04:46:37.838Z,4.60
2022-08-01T04:49:10.392Z,4.67
2022-08-01T04:51:38.650Z,4.67
2022-08-01T04:54:08.360Z,4.50
2022-08-01T04:56:36.574Z,4.73
2022-08-01T04:59:22.295Z,4.63
2022-08-01T05:01:53.264Z,4.43
2022-08-01T05:04:22.742Z,4.27
2022-08-01T05:06:50.900Z,4.30
2022-08-01T05:09:19.039Z,4.23
2022-08-01T05:11:47.177Z,4.00
2022-08-01T05:14:15.486Z,4.80
2022-08-01T05:16:43.687Z,4.50
2022-08-01T05:19:11.920Z,4.37
2022-08-01T05:21:41.459Z,4.17
2022-08-01T05:24:09.738Z,4.37
2022-08-01T05:26:39.641Z,4.73
2022-08-01T05:29:08.146Z,4.30
2022-08-01T05:31:36.399Z,4.20
2022-08-01T05:34:06.049Z,4.20
2022-08-01T05:36:44.691Z,4.30
2022-08-01T05:39:13.010Z,4.10
2022-08-01T05:41:41.811Z,4.53
2022-08-01T05:44:11.374Z,4.30
2022-08-01T05:46:39.767Z,4.33
2022-08-01T05:49:08.336Z,4.57
2022-08-01T05:51:38.877Z,3.93
2022-08-01T05:54:08.475Z,4.00
2022-08-01T05:56:36.632Z,4.73
2022-08-01T05:59:05.108Z,4.37
2022-08-01T06:01:33.791Z,3.93
2022-08-01T06:04:01.996Z,3.97
2022-08-01T06:06:30.259Z,4.60
2022-08-01T06:08:58.460Z,4.30
2022-08-01T06:11:28.011Z,3.93
2022-08-01T06:13:56.149Z,4.30
2022-08-01T06:16:24.517Z,4.40
2022-08-01T06:18:56.528Z,4.40
2022-08-01T06:21:25.116Z,4.00
2022-08-01T06:23:53.357Z,4.60
2022-08-01T06:26:22.056Z,4.30
2022-08-01T06:28:51.544Z,5.07
2022-08-01T06:31:19.754Z,4.50
2022-08-01T06:33:47.943Z,3.90
2022-08-01T06:36:16.088Z,4.93
2022-08-01T06:38:44.236Z,4.10
2022-08-01T06:41:14.944Z,4.33
2022-08-01T06:43:43.068Z,4.53
2022-08-01T06:46:12.627Z,3.83
2022-08-01T06:48:41.006Z,4.43
2022-08-01T06:51:14.850Z,4.10
2022-08-01T06:53:45.467Z,3.93
2022-08-01T06:56:13.847Z,3.90
2022-08-01T06:58:42.119Z,4.20
2022-08-01T07:01:10.745Z,4.20
2022-08-01T07:03:54.063Z,4.17
2022-08-01T07:06:24.698Z,4.53
2022-08-01T07:08:53.229Z,4.00
2022-08-01T07:11:21.656Z,3.77
2022-08-01T07:13:51.525Z,3.90
2022-08-01T07:16:23.083Z,3.73
2022-08-01T07:18:52.834Z,3.57
2022-08-01T07:21:40.031Z,3.53
2022-08-01T07:24:13.793Z,3.67
2022-08-01T07:26:52.244Z,3.60
2022-08-01T07:29:23.608Z,3.37
2022-08-01T07:31:51.836Z,3.23
2022-08-01T07:34:21.455Z,3.80
2022-08-01T07:36:49.679Z,3.47
2022-08-01T07:39:17.879Z,2.93
2022-08-01T07:42:05.790Z,3.90
2022-08-01T07:44:36.604Z,3.13
2022-08-01T07:47:05.630Z,3.20
2022-08-01T07:49:40.049Z,3.40
2022-08-01T07:52:09.515Z,4.20
2022-08-01T07:54:38.137Z,3.20
2022-08-01T07:57:08.164Z,3.90
2022-08-01T07:59:38.791Z,3.47
2022-08-01T08:02:10.397Z,3.00
2022-08-01T08:04:40.355Z,3.57
2022-08-01T08:07:08.909Z,3.40
2022-08-01T08:09:38.391Z,2.93
2022-08-01T08:12:08.924Z,3.37
2022-08-01T08:14:37.346Z,3.10
2022-08-01T08:17:06.143Z,3.00
2022-08-01T08:19:38.126Z,2.80
2022-08-01T08:22:09.617Z,2.83
2022-08-01T08:24:46.086Z,2.53
2022-08-01T08:27:15.299Z,2.93
2022-08-01T08:29:43.840Z,2.63
2022-08-01T08:32:13.425Z,3.13
2022-08-01T08:34:44.306Z,4.33
2022-08-01T08:37:13.962Z,2.50
2022-08-01T08:39:42.672Z,2.63
2022-08-01T08:42:14.243Z,2.70
2022-08-01T08:44:44.442Z,2.77
2022-08-01T08:47:20.096Z,2.53
2022-08-01T08:49:50.906Z,2.43
2022-08-01T08:52:24.232Z,3.07
2022-08-01T08:54:53.869Z,2.57
2022-08-01T08:57:23.034Z,2.17
2022-08-01T08:59:55.092Z,2.40
2022-08-01T09:02:24.624Z,2.20
2022-08-01T09:04:53.023Z,2.17
2022-08-01T09:07:23.903Z,2.40
2022-08-01T09:09:52.514Z,2.73
2022-08-01T09:12:21.491Z,2.63
2022-08-01T09:14:54.401Z,2.53
2022-08-01T09:17:25.469Z,2.10
2022-08-01T09:19:57.825Z,2.07
2022-08-01T09:22:35.093Z,2.30
2022-08-01T09:25:10.382Z,2.30
2022-08-01T09:27:43.871Z,2.07
2022-08-01T09:30:17.271Z,2.13
2022-08-01T09:33:11.553Z,2.20
2022-08-01T09:35:56.455Z,2.00
2022-08-01T09:38:28.436Z,2.50
2022-08-01T09:40:58.869Z,2.33
2022-08-01T09:43:29.626Z,3.40
2022-08-01T09:46:00.893Z,2.17
2022-08-01T09:48:29.971Z,2.20
2022-08-01T09:51:07.481Z,2.20
2022-08-01T09:53:52.143Z,1.88
2022-08-01T09:56:24.033Z,1.90
2022-08-01T09:59:02.330Z,2.50
2022-08-01T10:01:44.521Z,1.98
2022-08-01T10:04:15.533Z,1.83
2022-08-01T10:06:50.845Z,2.00
2022-08-01T10:09:40.353Z,1.90
2022-08-01T10:12:15.464Z,2.17
2022-08-01T10:14:46.033Z,1.95
2022-08-01T10:17:20.078Z,2.08
2022-08-01T10:19:51.368Z,1.95
2022-08-01T10:22:22.358Z,1.90
2022-08-01T10:24:57.120Z,2.10
2022-08-01T10:27:38.174Z,1.85
2022-08-01T10:30:19.957Z,2.47
2022-08-01T10:32:55.035Z,2.80
2022-08-01T10:35:46.711Z,1.92
2022-08-01T10:38:15.343Z,1.50
2022-08-01T10:40:46.316Z,1.73
2022-08-01T10:43:21.821Z,2.25
2022-08-01T10:45:55.056Z,2.00
2022-08-01T10:48:31.577Z,2.22
2022-08-01T10:51:17.706Z,2.05
2022-08-01T10:53:54.291Z,1.80
2022-08-01T10:56:26.879Z,1.80
2022-08-01T10:59:06.503Z,1.80
2022-08-01T11:01:44.679Z,1.73
2022-08-01T11:04:17.040Z,1.75
2022-08-01T11:06:56.235Z,1.67
2022-08-01T11:09:36.232Z,2.45
2022-08-01T11:12:13.650Z,2.08
2022-08-01T11:15:28.806Z,1.77
2022-08-01T11:18:01.685Z,1.83
2022-08-01T11:20:33.940Z,2.00
2022-08-01T11:23:29.422Z,1.83
2022-08-01T11:26:29.143Z,2.42
2022-08-01T11:29:21.905Z,1.73
2022-08-01T11:31:52.997Z,2.10
2022-08-01T11:34:21.816Z,1.80
2022-08-01T11:37:09.639Z,1.83
2022-08-01T11:39:38.999Z,1.80
2022-08-01T11:42:23.061Z,1.70
2022-08-01T11:44:53.264Z,1.50
2022-08-01T11:47:49.780Z,1.85
2022-08-01T11:50:35.531Z,1.50
2022-08-01T11:53:06.012Z,1.33
2022-08-01T11:55:36.001Z,1.52
2022-08-01T11:58:06.511Z,1.40
2022-08-01T12:00:37.569Z,1.58
2022-08-01T12:03:21.554Z,1.73
2022-08-01T12:06:01.803Z,1.55
2022-08-01T12:08:35.767Z,1.50
2022-08-01T12:11:06.726Z,1.45
2022-08-01T12:13:45.468Z,1.40
2022-08-01T12:16:15.431Z,1.30
2022-08-01T12:18:44.644Z,1.50
2022-08-01T12:21:16.002Z,1.45
2022-08-01T12:23:44.138Z,1.40
2022-08-01T12:26:29.399Z,1.27
2022-08-01T12:29:00.350Z,1.30
2022-08-01T12:31:38.396Z,1.45
2022-08-01T12:34:27.508Z,1.65
2022-08-01T12:36:56.827Z,1.25
2022-08-01T12:39:31.812Z,1.75
2022-08-01T12:42:00.030Z,1.40
2022-08-01T12:44:30.103Z,1.30
2022-08-01T12:47:00.385Z,1.38
2022-08-01T12:49:30.700Z,1.48
2022-08-01T12:51:59.542Z,1.40
2022-08-01T12:54:27.629Z,1.45
2022-08-01T12:56:56.372Z,1.23
2022-08-01T12:59:27.898Z,1.20
2022-08-01T13:01:59.465Z,1.27
2022-08-01T13:04:31.854Z,1.30
2022-08-01T13:07:00.003Z,1.20
2022-08-01T13:09:29.291Z,1.02
2022-08-01T13:12:04.685Z,1.23
2022-08-01T13:14:33.284Z,1.20
2022-08-01T13:17:01.438Z,1.13
2022-08-01T13:22:35.727Z,1.38
2022-08-01T13:25:20.828Z,1.15
2022-08-01T13:28:17.571Z,1.38
2022-08-01T13:31:01.385Z,1.10
2022-08-01T13:33:42.798Z,1.10
2022-08-01T13:36:11.439Z,1.27
2022-08-01T13:38:59.475Z,1.15
2022-08-01T13:41:27.744Z,1.58
2022-08-01T13:43:58.227Z,1.30
2022-08-01T13:46:29.524Z,1.60
2022-08-01T13:48:59.148Z,1.42
2022-08-01T13:51:33.725Z,1.33
2022-08-01T13:54:03.575Z,1.35
2022-08-01T13:56:31.846Z,1.20
2022-08-01T13:58:59.983Z,1.30
2022-08-01T14:01:34.240Z,1.10
2022-08-01T14:04:03.529Z,1.20
2022-08-01T14:06:31.836Z,1.02
2022-08-01T14:08:59.967Z,1.27
2022-08-01T14:11:37.245Z,1.30
2022-08-01T14:14:08.419Z,1.20
2022-08-01T14:16:38.517Z,1.20
2022-08-01T14:19:07.023Z,1.58
2022-08-01T14:21:35.758Z,1.20
2022-08-01T14:24:03.977Z,1.27
2022-08-01T14:26:36.212Z,1.58
2022-08-01T14:29:04.899Z,1.58
2022-08-01T14:31:34.516Z,1.13
2022-08-01T14:34:03.199Z,1.23
2022-08-01T14:36:38.109Z,1.02
2022-08-01T14:39:07.082Z,1.10
2022-08-01T14:41:44.302Z,1.20
2022-08-01T14:44:14.590Z,1.20
2022-08-01T14:46:57.796Z,1.00
2022-08-01T14:49:29.063Z,1.02
2022-08-01T14:51:57.229Z,1.30
2022-08-01T14:54:29.465Z,1.10
2022-08-01T14:56:59.422Z,1.50
2022-08-01T14:59:27.718Z,1.33
2022-08-01T15:01:55.913Z,1.42
2022-08-01T15:04:24.062Z,1.38
2022-08-01T15:06:52.209Z,1.10
2022-08-01T15:09:23.415Z,1.27
2022-08-01T15:11:51.608Z,1.17
2022-08-01T15:14:39.899Z,1.42
2022-08-01T15:17:08.817Z,1.40
2022-08-01T15:19:40.356Z,1.27
2022-08-01T15:22:10.682Z,1.40
2022-08-01T15:24:38.995Z,1.15
2022-08-01T15:27:07.463Z,1.52
2022-08-01T15:29:37.119Z,1.58
2022-08-01T15:32:08.215Z,1.80
2022-08-01T15:34:37.682Z,1.40
2022-08-01T15:37:07.084Z,1.45
2022-08-01T15:39:37.583Z,1.88
2022-08-01T15:42:12.121Z,1.58
2022-08-01T15:44:46.602Z,3.47
2022-08-01T15:47:14.841Z,1.60
2022-08-01T15:49:43.110Z,1.10
2022-08-01T15:52:21.454Z,1.30
2022-08-01T15:54:51.547Z,1.70
2022-08-01T15:57:19.915Z,1.20
2022-08-01T15:59:49.389Z,1.50
2022-08-01T16:02:17.677Z,1.23
2022-08-01T16:04:45.857Z,1.85
2022-08-01T16:07:13.992Z,1.55
2022-08-01T16:09:42.251Z,1.42
2022-08-01T16:12:10.940Z,1.20
2022-08-01T16:14:39.076Z,1.52
2022-08-01T16:17:08.611Z,1.40
2022-08-01T16:19:36.761Z,1.65
2022-08-01T16:22:05.233Z,1.60
2022-08-01T16:24:33.669Z,1.80
2022-08-01T16:27:01.785Z,1.63
2022-08-01T16:29:31.938Z,1.58
2022-08-01T16:32:06.712Z,1.52
2022-08-01T16:34:52.970Z,1.30
2022-08-01T16:37:23.819Z,1.27
2022-08-01T16:39:51.933Z,1.60
2022-08-01T16:42:27.635Z,2.10
2022-08-01T16:44:56.019Z,2.17
2022-08-01T16:47:24.234Z,1.60
2022-08-01T16:49:53.750Z,1.45
2022-08-01T16:52:28.566Z,1.52
2022-08-01T16:54:58.038Z,1.50
2022-08-01T16:57:26.193Z,1.50
2022-08-01T16:59:54.366Z,1.48
2022-08-01T17:02:25.087Z,1.58
2022-08-01T17:04:56.103Z,1.40
2022-08-01T17:07:24.503Z,1.40
2022-08-01T17:09:52.745Z,1.15
2022-08-01T17:12:22.241Z,1.50
2022-08-01T17:14:51.350Z,1.42
2022-08-01T17:17:19.498Z,1.65
2022-08-01T17:19:54.512Z,1.80
2022-08-01T17:22:27.756Z,1.40
2022-08-01T17:24:58.355Z,1.55
2022-08-01T17:27:26.545Z,1.48
2022-08-01T17:29:57.521Z,1.48
2022-08-01T17:32:28.249Z,2.17
2022-08-01T17:34:56.418Z,2.13
2022-08-01T17:37:27.244Z,4.25
2022-08-01T17:39:55.434Z,3.58
2022-08-01T17:42:25.621Z,1.73
2022-08-01T17:44:57.066Z,2.80
2022-08-01T17:47:49.355Z,2.17
2022-08-01T17:50:15.323Z,1.95
2022-08-01T17:52:46.124Z,2.00
2022-08-01T17:55:55.848Z,1.65
2022-08-01T17:58:05.162Z,2.97
2022-08-01T18:00:34.258Z,3.10
2022-08-01T18:03:02.596Z,3.22
2022-08-01T18:05:59.317Z,3.95
2022-08-01T18:08:31.708Z,2.47
2022-08-01T18:11:00.277Z,1.40
2022-08-01T18:13:29.265Z,1.50
2022-08-01T18:15:58.099Z,1.83
2022-08-01T18:18:33.506Z,1.40
2022-08-01T18:21:02.660Z,1.20
2022-08-01T18:23:33.708Z,1.63
2022-08-01T18:26:07.409Z,1.60
2022-08-01T18:28:41.718Z,1.70
2022-08-01T18:31:16.868Z,1.30
2022-08-01T18:33:47.420Z,1.48
2022-08-01T18:36:32.097Z,1.40
2022-08-01T18:39:10.151Z,1.65
2022-08-01T18:41:40.966Z,1.77
2022-08-01T18:44:12.454Z,1.20
2022-08-01T18:46:41.414Z,1.58
2022-08-01T18:49:12.267Z,1.80
2022-08-01T18:51:44.825Z,1.83
2022-08-01T18:54:16.015Z,1.73
2022-08-01T18:56:45.144Z,1.73
2022-08-01T18:59:15.832Z,2.10
2022-08-01T19:01:44.378Z,2.20
2022-08-01T19:04:17.385Z,2.05
2022-08-01T19:06:48.641Z,2.22
2022-08-01T19:09:20.804Z,2.22
2022-08-01T19:11:49.244Z,2.95
2022-08-01T19:14:17.586Z,3.78
2022-08-01T19:16:45.813Z,2.47
2022-08-01T19:19:27.667Z,2.25
2022-08-01T19:21:56.570Z,2.13
2022-08-01T19:24:26.107Z,2.08
2022-08-01T19:26:56.637Z,2.17
2022-08-01T19:29:36.017Z,2.10
2022-08-01T19:32:06.675Z,2.20
2022-08-01T19:34:37.956Z,2.33
2022-08-01T19:37:06.965Z,2.40
2022-08-01T19:39:36.704Z,3.13
2022-08-01T19:42:05.615Z,3.37
2022-08-01T19:44:36.039Z,2.80
2022-08-01T19:47:06.333Z,2.77
2022-08-01T19:49:34.922Z,2.57
2022-08-01T19:52:05.147Z,2.20
2022-08-01T19:54:38.085Z,2.50
2022-08-01T19:57:09.003Z,3.20
2022-08-01T19:59:39.879Z,2.87
2022-08-01T20:02:09.096Z,3.30
2022-08-01T20:04:37.413Z,3.83
2022-08-01T20:07:09.289Z,4.03
2022-08-01T20:09:41.320Z,3.17
2022-08-01T20:12:10.472Z,2.60
2022-08-01T20:14:38.643Z,2.90
2022-08-01T20:17:09.299Z,2.70
2022-08-01T20:19:37.461Z,2.77
2022-08-01T20:22:07.876Z,3.13
2022-08-01T20:24:45.958Z,3.57
2022-08-01T20:27:16.407Z,3.07
2022-08-01T20:29:46.447Z,3.00
2022-08-01T20:32:15.644Z,3.40
2022-08-01T20:34:46.346Z,2.77
2022-08-01T20:37:14.908Z,2.67
2022-08-01T20:39:45.307Z,2.53
2022-08-01T20:42:14.830Z,2.83
2022-08-01T20:44:46.437Z,2.80
2022-08-01T20:47:15.624Z,2.90
2022-08-01T20:49:46.822Z,3.30
2022-08-01T20:52:19.350Z,2.73
2022-08-01T20:54:48.942Z,3.23
2022-08-01T20:57:25.422Z,3.10
2022-08-01T21:00:01.905Z,2.80
2022-08-01T21:02:42.591Z,3.40
2022-08-01T21:05:14.444Z,3.60
2022-08-01T21:07:51.083Z,3.10
2022-08-01T21:10:26.013Z,3.33
2022-08-01T21:13:03.478Z,2.90
2022-08-01T21:15:34.773Z,3.57
2022-08-01T21:18:12.757Z,3.50
2022-08-01T21:20:49.519Z,3.83
2022-08-01T21:23:34.591Z,3.30
2022-08-01T21:26:07.999Z,3.60
2022-08-01T21:28:54.464Z,3.80
2022-08-01T21:31:37.658Z,3.87
2022-08-01T21:34:12.513Z,3.60
2022-08-01T21:36:45.450Z,3.90
2022-08-01T21:39:14.421Z,4.53
2022-08-01T21:41:56.311Z,3.90
2022-08-01T21:44:35.177Z,4.60
2022-08-01T21:47:04.867Z,4.50
2022-08-01T21:49:33.331Z,4.17
2022-08-01T21:52:09.241Z,4.30
2022-08-01T21:54:59.954Z,4.80
2022-08-01T21:57:45.668Z,4.63
2022-08-01T22:00:25.014Z,4.43
2022-08-01T22:03:15.160Z,4.67
2022-08-01T22:05:50.097Z,4.00
2022-08-01T22:08:30.095Z,4.30
2022-08-01T22:11:01.724Z,4.53
2022-08-01T22:13:31.321Z,3.83
2022-08-01T22:16:00.386Z,4.23
2022-08-01T22:18:29.018Z,4.77
2022-08-01T22:20:57.577Z,5.07
2022-08-01T22:23:25.884Z,5.03
2022-08-01T22:25:57.729Z,4.63
2022-08-01T22:28:26.192Z,5.20
2022-08-01T22:30:56.355Z,5.27
2022-08-01T22:33:25.343Z,5.67
2022-08-01T22:35:56.546Z,4.60
2022-08-01T22:38:26.145Z,4.70
2022-08-01T22:41:00.866Z,4.63
2022-08-01T22:43:37.801Z,4.33
2022-08-01T22:46:26.265Z,5.20
2022-08-01T22:49:03.264Z,5.10
2022-08-01T22:51:54.837Z,5.10
2022-08-01T22:54:31.490Z,4.57
2022-08-01T22:57:07.216Z,4.87
2022-08-01T22:59:49.941Z,4.73
2022-08-01T23:02:21.744Z,4.30
2022-08-01T23:04:51.302Z,4.80
2022-08-01T23:07:23.262Z,5.23
2022-08-01T23:09:54.844Z,4.70
2022-08-01T23:12:25.466Z,4.87
2022-08-01T23:14:56.498Z,4.70
2022-08-01T23:17:29.737Z,4.73
2022-08-01T23:20:00.939Z,5.70
2022-08-01T23:22:32.165Z,5.50
2022-08-01T23:25:05.447Z,5.53
2022-08-01T23:27:51.255Z,6.07
2022-08-01T23:30:28.464Z,5.33
2022-08-01T23:32:58.705Z,5.20
2022-08-01T23:35:28.017Z,5.63
2022-08-01T23:38:02.366Z,5.90
2022-08-01T23:40:32.258Z,6.80
2022-08-01T23:43:01.460Z,5.80
2022-08-01T23:45:36.013Z,5.50
2022-08-01T23:48:20.014Z,5.53
2022-08-01T23:50:48.156Z,5.50
2022-08-01T23:53:16.337Z,5.50
2022-08-01T23:55:44.640Z,5.73
2022-08-01T23:58:12.946Z,6.10
